sensor_id;sensor_type;location;lat;lon;timestamp;P1;durP1;ratioP1;P2;durP2;ratioP2
12687;SDS011;6408;59.388;17.798;2023-05-17T00:01:05;6.22;;;5.55;;
12687;SDS011;6408;59.388;17.798;2023-05-17T00:03:33;5.72;;;5.07;;
12687;SDS011;6408;59.388;17.798;2023-05-17T00:06:02;5.20;;;4.78;;
12687;SDS011;6408;59.388;17.798;2023-05-17T00:08:30;6.18;;;5.57;;
12687;SDS011;6408;59.388;17.798;2023-05-17T00:10:58;5.90;;;5.43;;
12687;SDS011;6408;59.388;17.798;2023-05-17T00:13:26;5.55;;;5.15;;
12687;SDS011;6408;59.388;17.798;2023-05-17T00:15:53;6.07;;;5.55;;
12687;SDS011;6408;59.388;17.798;2023-05-17T00:18:21;7.82;;;5.40;;
12687;SDS011;6408;59.388;17.798;2023-05-17T00:20:49;5.60;;;5.10;;
12687;SDS011;6408;59.388;17.798;2023-05-17T00:23:18;6.78;;;5.75;;
12687;SDS011;6408;59.388;17.798;2023-05-17T00:25:45;5.60;;;5.10;;
12687;SDS011;6408;59.388;17.798;2023-05-17T00:28:13;5.78;;;5.20;;
12687;SDS011;6408;59.388;17.798;2023-05-17T00:30:40;6.25;;;5.60;;
12687;SDS011;6408;59.388;17.798;2023-05-17T00:33:08;6.00;;;5.47;;
12687;SDS011;6408;59.388;17.798;2023-05-17T00:35:35;6.53;;;5.75;;
12687;SDS011;6408;59.388;17.798;2023-05-17T00:38:02;6.18;;;4.80;;
12687;SDS011;6408;59.388;17.798;2023-05-17T00:40:32;6.13;;;5.60;;
12687;SDS011;6408;59.388;17.798;2023-05-17T00:42:59;5.85;;;5.15;;
12687;SDS011;6408;59.388;17.798;2023-05-17T00:45:27;5.75;;;5.22;;
12687;SDS011;6408;59.388;17.798;2023-05-17T00:47:54;5.85;;;5.35;;
12687;SDS011;6408;59.388;17.798;2023-05-17T00:50:22;5.60;;;5.15;;
12687;SDS011;6408;59.388;17.798;2023-05-17T00:52:50;5.85;;;5.22;;
12687;SDS011;6408;59.388;17.798;2023-05-17T00:55:18;7.00;;;5.57;;
12687;SDS011;6408;59.388;17.798;2023-05-17T00:57:47;6.20;;;5.60;;
12687;SDS011;6408;59.388;17.798;2023-05-17T01:00:15;6.93;;;6.03;;
12687;SDS011;6408;59.388;17.798;2023-05-17T01:02:43;7.35;;;6.22;;
12687;SDS011;6408;59.388;17.798;2023-05-17T01:05:12;6.22;;;5.63;;
12687;SDS011;6408;59.388;17.798;2023-05-17T01:07:40;5.45;;;4.95;;
12687;SDS011;6408;59.388;17.798;2023-05-17T01:10:08;5.38;;;4.97;;
12687;SDS011;6408;59.388;17.798;2023-05-17T01:12:41;5.63;;;5.13;;
12687;SDS011;6408;59.388;17.798;2023-05-17T01:15:19;7.00;;;4.90;;
12687;SDS011;6408;59.388;17.798;2023-05-17T01:17:53;5.80;;;5.30;;
12687;SDS011;6408;59.388;17.798;2023-05-17T01:20:32;5.75;;;5.20;;
12687;SDS011;6408;59.388;17.798;2023-05-17T01:23:09;6.00;;;5.40;;
12687;SDS011;6408;59.388;17.798;2023-05-17T01:25:49;6.40;;;5.45;;
12687;SDS011;6408;59.388;17.798;2023-05-17T01:28:23;5.35;;;4.85;;
12687;SDS011;6408;59.388;17.798;2023-05-17T01:30:53;8.55;;;5.65;;
12687;SDS011;6408;59.388;17.798;2023-05-17T01:33:21;5.55;;;5.15;;
12687;SDS011;6408;59.388;17.798;2023-05-17T01:35:49;5.55;;;4.93;;
12687;SDS011;6408;59.388;17.798;2023-05-17T01:38:16;5.55;;;5.05;;
12687;SDS011;6408;59.388;17.798;2023-05-17T01:40:45;5.60;;;5.03;;
12687;SDS011;6408;59.388;17.798;2023-05-17T01:43:20;5.63;;;5.15;;
12687;SDS011;6408;59.388;17.798;2023-05-17T01:45:54;5.57;;;5.07;;
12687;SDS011;6408;59.388;17.798;2023-05-17T01:48:33;6.07;;;5.47;;
12687;SDS011;6408;59.388;17.798;2023-05-17T01:51:04;5.93;;;5.32;;
12687;SDS011;6408;59.388;17.798;2023-05-17T01:53:36;6.22;;;5.72;;
12687;SDS011;6408;59.388;17.798;2023-05-17T01:56:09;6.20;;;5.70;;
12687;SDS011;6408;59.388;17.798;2023-05-17T01:58:44;6.30;;;5.80;;
12687;SDS011;6408;59.388;17.798;2023-05-17T02:01:13;6.70;;;5.85;;
12687;SDS011;6408;59.388;17.798;2023-05-17T02:03:42;6.15;;;5.55;;
12687;SDS011;6408;59.388;17.798;2023-05-17T02:06:11;6.35;;;5.75;;
12687;SDS011;6408;59.388;17.798;2023-05-17T02:08:39;6.25;;;5.65;;
12687;SDS011;6408;59.388;17.798;2023-05-17T02:11:06;5.72;;;5.22;;
12687;SDS011;6408;59.388;17.798;2023-05-17T02:13:34;6.03;;;5.43;;
12687;SDS011;6408;59.388;17.798;2023-05-17T02:16:03;6.35;;;5.75;;
12687;SDS011;6408;59.388;17.798;2023-05-17T02:18:31;6.35;;;5.75;;
12687;SDS011;6408;59.388;17.798;2023-05-17T02:20:59;6.53;;;5.85;;
12687;SDS011;6408;59.388;17.798;2023-05-17T02:23:26;6.63;;;6.03;;
12687;SDS011;6408;59.388;17.798;2023-05-17T02:25:54;6.00;;;5.53;;
12687;SDS011;6408;59.388;17.798;2023-05-17T02:28:21;6.05;;;5.55;;
12687;SDS011;6408;59.388;17.798;2023-05-17T02:30:49;6.95;;;6.30;;
12687;SDS011;6408;59.388;17.798;2023-05-17T02:33:19;7.30;;;6.60;;
12687;SDS011;6408;59.388;17.798;2023-05-17T02:35:47;8.00;;;6.25;;
12687;SDS011;6408;59.388;17.798;2023-05-17T02:38:15;6.25;;;5.75;;
12687;SDS011;6408;59.388;17.798;2023-05-17T02:40:42;6.65;;;6.00;;
12687;SDS011;6408;59.388;17.798;2023-05-17T02:43:10;6.97;;;6.22;;
12687;SDS011;6408;59.388;17.798;2023-05-17T02:45:42;6.30;;;5.35;;
12687;SDS011;6408;59.388;17.798;2023-05-17T02:48:09;6.30;;;5.80;;
12687;SDS011;6408;59.388;17.798;2023-05-17T02:50:38;6.18;;;5.68;;
12687;SDS011;6408;59.388;17.798;2023-05-17T02:53:05;8.00;;;5.65;;
12687;SDS011;6408;59.388;17.798;2023-05-17T02:55:33;8.00;;;6.00;;
12687;SDS011;6408;59.388;17.798;2023-05-17T02:58:01;6.70;;;6.10;;
12687;SDS011;6408;59.388;17.798;2023-05-17T03:00:28;6.47;;;5.97;;
12687;SDS011;6408;59.388;17.798;2023-05-17T03:02:56;6.13;;;5.57;;
12687;SDS011;6408;59.388;17.798;2023-05-17T03:05:23;5.72;;;5.28;;
12687;SDS011;6408;59.388;17.798;2023-05-17T03:07:53;6.00;;;5.50;;
12687;SDS011;6408;59.388;17.798;2023-05-17T03:10:21;6.45;;;5.65;;
12687;SDS011;6408;59.388;17.798;2023-05-17T03:12:48;6.45;;;5.85;;
12687;SDS011;6408;59.388;17.798;2023-05-17T03:15:16;7.00;;;6.32;;
12687;SDS011;6408;59.388;17.798;2023-05-17T03:17:43;6.47;;;5.60;;
12687;SDS011;6408;59.388;17.798;2023-05-17T03:20:11;6.10;;;5.40;;
12687;SDS011;6408;59.388;17.798;2023-05-17T03:22:38;6.05;;;5.55;;
12687;SDS011;6408;59.388;17.798;2023-05-17T03:25:12;6.57;;;5.90;;
12687;SDS011;6408;59.388;17.798;2023-05-17T03:27:40;6.60;;;6.05;;
12687;SDS011;6408;59.388;17.798;2023-05-17T03:30:08;6.45;;;5.85;;
12687;SDS011;6408;59.388;17.798;2023-05-17T03:32:37;6.65;;;5.53;;
12687;SDS011;6408;59.388;17.798;2023-05-17T03:35:06;6.77;;;6.17;;
12687;SDS011;6408;59.388;17.798;2023-05-17T03:37:34;5.72;;;5.25;;
12687;SDS011;6408;59.388;17.798;2023-05-17T03:40:01;6.10;;;5.55;;
12687;SDS011;6408;59.388;17.798;2023-05-17T03:42:30;6.47;;;5.75;;
12687;SDS011;6408;59.388;17.798;2023-05-17T03:45:02;6.40;;;5.35;;
12687;SDS011;6408;59.388;17.798;2023-05-17T03:47:30;6.20;;;5.70;;
12687;SDS011;6408;59.388;17.798;2023-05-17T03:49:58;5.88;;;5.40;;
12687;SDS011;6408;59.388;17.798;2023-05-17T03:52:25;5.93;;;5.43;;
12687;SDS011;6408;59.388;17.798;2023-05-17T03:54:53;5.65;;;4.68;;
12687;SDS011;6408;59.388;17.798;2023-05-17T03:57:20;5.00;;;4.50;;
12687;SDS011;6408;59.388;17.798;2023-05-17T03:59:50;5.20;;;4.80;;
12687;SDS011;6408;59.388;17.798;2023-05-17T04:02:18;5.38;;;4.88;;
12687;SDS011;6408;59.388;17.798;2023-05-17T04:04:49;5.55;;;5.07;;
12687;SDS011;6408;59.388;17.798;2023-05-17T04:07:18;6.22;;;4.57;;
12687;SDS011;6408;59.388;17.798;2023-05-17T04:09:46;4.77;;;4.37;;
12687;SDS011;6408;59.388;17.798;2023-05-17T04:12:14;4.88;;;4.47;;
12687;SDS011;6408;59.388;17.798;2023-05-17T04:14:42;5.07;;;4.60;;
12687;SDS011;6408;59.388;17.798;2023-05-17T04:17:13;5.60;;;4.70;;
12687;SDS011;6408;59.388;17.798;2023-05-17T04:19:40;5.05;;;4.55;;
12687;SDS011;6408;59.388;17.798;2023-05-17T04:22:07;5.30;;;4.90;;
12687;SDS011;6408;59.388;17.798;2023-05-17T04:24:35;5.57;;;4.68;;
12687;SDS011;6408;59.388;17.798;2023-05-17T04:27:03;5.43;;;4.93;;
12687;SDS011;6408;59.388;17.798;2023-05-17T04:29:31;5.35;;;4.85;;
12687;SDS011;6408;59.388;17.798;2023-05-17T04:31:59;5.75;;;4.90;;
12687;SDS011;6408;59.388;17.798;2023-05-17T04:34:28;5.20;;;4.70;;
12687;SDS011;6408;59.388;17.798;2023-05-17T04:36:57;5.80;;;5.22;;
12687;SDS011;6408;59.388;17.798;2023-05-17T04:39:24;5.63;;;4.97;;
12687;SDS011;6408;59.388;17.798;2023-05-17T04:41:52;5.78;;;5.28;;
12687;SDS011;6408;59.388;17.798;2023-05-17T04:44:19;6.03;;;5.43;;
12687;SDS011;6408;59.388;17.798;2023-05-17T04:46:47;6.05;;;5.40;;
12687;SDS011;6408;59.388;17.798;2023-05-17T04:49:16;6.05;;;5.45;;
12687;SDS011;6408;59.388;17.798;2023-05-17T04:51:46;6.17;;;5.50;;
12687;SDS011;6408;59.388;17.798;2023-05-17T04:54:14;6.15;;;5.65;;
12687;SDS011;6408;59.388;17.798;2023-05-17T04:56:43;6.03;;;5.43;;
12687;SDS011;6408;59.388;17.798;2023-05-17T04:59:11;6.77;;;6.03;;
12687;SDS011;6408;59.388;17.798;2023-05-17T05:01:38;5.80;;;5.30;;
12687;SDS011;6408;59.388;17.798;2023-05-17T05:04:06;6.17;;;5.67;;
12687;SDS011;6408;59.388;17.798;2023-05-17T05:06:34;6.03;;;5.53;;
12687;SDS011;6408;59.388;17.798;2023-05-17T05:09:04;5.88;;;5.38;;
12687;SDS011;6408;59.388;17.798;2023-05-17T05:11:32;5.63;;;5.13;;
12687;SDS011;6408;59.388;17.798;2023-05-17T05:13:59;5.35;;;4.85;;
12687;SDS011;6408;59.388;17.798;2023-05-17T05:16:27;5.05;;;4.65;;
12687;SDS011;6408;59.388;17.798;2023-05-17T05:18:55;5.65;;;5.15;;
12687;SDS011;6408;59.388;17.798;2023-05-17T05:21:23;5.32;;;4.82;;
12687;SDS011;6408;59.388;17.798;2023-05-17T05:23:51;4.95;;;4.55;;
12687;SDS011;6408;59.388;17.798;2023-05-17T05:26:20;5.53;;;5.00;;
12687;SDS011;6408;59.388;17.798;2023-05-17T05:28:48;5.15;;;4.65;;
12687;SDS011;6408;59.388;17.798;2023-05-17T05:31:16;4.57;;;4.18;;
12687;SDS011;6408;59.388;17.798;2023-05-17T05:33:43;5.45;;;4.97;;
12687;SDS011;6408;59.388;17.798;2023-05-17T05:36:11;4.93;;;4.50;;
12687;SDS011;6408;59.388;17.798;2023-05-17T05:38:39;5.20;;;4.37;;
12687;SDS011;6408;59.388;17.798;2023-05-17T05:41:07;5.55;;;5.00;;
12687;SDS011;6408;59.388;17.798;2023-05-17T05:43:37;5.22;;;4.72;;
12687;SDS011;6408;59.388;17.798;2023-05-17T05:46:05;5.40;;;4.80;;
12687;SDS011;6408;59.388;17.798;2023-05-17T05:48:32;5.90;;;5.40;;
12687;SDS011;6408;59.388;17.798;2023-05-17T05:51:03;5.45;;;4.90;;
12687;SDS011;6408;59.388;17.798;2023-05-17T05:53:31;5.60;;;5.03;;
12687;SDS011;6408;59.388;17.798;2023-05-17T05:55:59;6.22;;;5.35;;
12687;SDS011;6408;59.388;17.798;2023-05-17T05:58:27;6.30;;;5.30;;
12687;SDS011;6408;59.388;17.798;2023-05-17T06:00:57;5.47;;;5.00;;
12687;SDS011;6408;59.388;17.798;2023-05-17T06:03:25;5.10;;;4.60;;
12687;SDS011;6408;59.388;17.798;2023-05-17T06:05:53;5.07;;;4.40;;
12687;SDS011;6408;59.388;17.798;2023-05-17T06:08:21;5.47;;;4.30;;
12687;SDS011;6408;59.388;17.798;2023-05-17T06:10:48;4.70;;;3.65;;
12687;SDS011;6408;59.388;17.798;2023-05-17T06:13:16;3.60;;;3.30;;
12687;SDS011;6408;59.388;17.798;2023-05-17T06:15:44;3.60;;;3.30;;
12687;SDS011;6408;59.388;17.798;2023-05-17T06:18:13;3.33;;;3.13;;
12687;SDS011;6408;59.388;17.798;2023-05-17T06:20:41;4.68;;;4.28;;
12687;SDS011;6408;59.388;17.798;2023-05-17T06:23:09;6.63;;;4.00;;
12687;SDS011;6408;59.388;17.798;2023-05-17T06:25:36;4.43;;;4.03;;
12687;SDS011;6408;59.388;17.798;2023-05-17T06:28:06;4.70;;;4.32;;
12687;SDS011;6408;59.388;17.798;2023-05-17T06:30:35;4.47;;;4.07;;
12687;SDS011;6408;59.388;17.798;2023-05-17T06:33:03;4.25;;;3.55;;
12687;SDS011;6408;59.388;17.798;2023-05-17T06:35:33;3.83;;;3.53;;
12687;SDS011;6408;59.388;17.798;2023-05-17T06:38:01;4.95;;;3.60;;
12687;SDS011;6408;59.388;17.798;2023-05-17T06:40:28;3.38;;;3.00;;
12687;SDS011;6408;59.388;17.798;2023-05-17T06:42:56;3.30;;;3.00;;
12687;SDS011;6408;59.388;17.798;2023-05-17T06:45:26;2.85;;;2.65;;
12687;SDS011;6408;59.388;17.798;2023-05-17T06:47:53;2.70;;;2.50;;
12687;SDS011;6408;59.388;17.798;2023-05-17T06:50:21;2.70;;;2.00;;
12687;SDS011;6408;59.388;17.798;2023-05-17T06:52:53;2.38;;;2.17;;
12687;SDS011;6408;59.388;17.798;2023-05-17T06:55:21;1.88;;;1.77;;
12687;SDS011;6408;59.388;17.798;2023-05-17T06:57:48;2.67;;;2.28;;
12687;SDS011;6408;59.388;17.798;2023-05-17T07:00:16;2.40;;;2.20;;
12687;SDS011;6408;59.388;17.798;2023-05-17T07:02:45;2.30;;;2.10;;
12687;SDS011;6408;59.388;17.798;2023-05-17T07:05:12;2.30;;;1.80;;
12687;SDS011;6408;59.388;17.798;2023-05-17T07:07:40;2.15;;;1.77;;
12687;SDS011;6408;59.388;17.798;2023-05-17T07:10:10;2.17;;;1.00;;
12687;SDS011;6408;59.388;17.798;2023-05-17T07:12:37;1.55;;;0.77;;
12687;SDS011;6408;59.388;17.798;2023-05-17T07:15:05;1.10;;;0.55;;
12687;SDS011;6408;59.388;17.798;2023-05-17T07:17:33;0.40;;;0.40;;
12687;SDS011;6408;59.388;17.798;2023-05-17T07:20:01;1.38;;;0.70;;
12687;SDS011;6408;59.388;17.798;2023-05-17T07:22:30;0.70;;;0.50;;
12687;SDS011;6408;59.388;17.798;2023-05-17T07:24:57;0.63;;;0.50;;
12687;SDS011;6408;59.388;17.798;2023-05-17T07:27:26;0.67;;;0.67;;
12687;SDS011;6408;59.388;17.798;2023-05-17T07:29:54;1.27;;;0.60;;
12687;SDS011;6408;59.388;17.798;2023-05-17T07:32:22;0.70;;;0.70;;
12687;SDS011;6408;59.388;17.798;2023-05-17T07:34:50;0.50;;;0.50;;
12687;SDS011;6408;59.388;17.798;2023-05-17T07:37:17;0.60;;;0.60;;
12687;SDS011;6408;59.388;17.798;2023-05-17T07:39:45;0.70;;;0.63;;
12687;SDS011;6408;59.388;17.798;2023-05-17T07:42:13;2.10;;;0.50;;
12687;SDS011;6408;59.388;17.798;2023-05-17T07:44:42;2.00;;;0.70;;
12687;SDS011;6408;59.388;17.798;2023-05-17T07:47:09;0.87;;;0.70;;
12687;SDS011;6408;59.388;17.798;2023-05-17T07:49:37;1.13;;;0.70;;
12687;SDS011;6408;59.388;17.798;2023-05-17T07:52:05;1.00;;;0.70;;
12687;SDS011;6408;59.388;17.798;2023-05-17T07:54:33;0.73;;;0.73;;
12687;SDS011;6408;59.388;17.798;2023-05-17T07:57:01;0.60;;;0.60;;
12687;SDS011;6408;59.388;17.798;2023-05-17T07:59:29;1.60;;;0.80;;
12687;SDS011;6408;59.388;17.798;2023-05-17T08:01:58;0.67;;;0.60;;
12687;SDS011;6408;59.388;17.798;2023-05-17T08:04:26;0.87;;;0.87;;
12687;SDS011;6408;59.388;17.798;2023-05-17T08:06:54;0.60;;;0.60;;
12687;SDS011;6408;59.388;17.798;2023-05-17T08:09:21;1.30;;;0.70;;
12687;SDS011;6408;59.388;17.798;2023-05-17T08:11:49;1.40;;;0.80;;
12687;SDS011;6408;59.388;17.798;2023-05-17T08:14:16;0.70;;;0.70;;
12687;SDS011;6408;59.388;17.798;2023-05-17T08:16:44;0.83;;;0.80;;
12687;SDS011;6408;59.388;17.798;2023-05-17T08:19:14;0.80;;;0.80;;
12687;SDS011;6408;59.388;17.798;2023-05-17T08:21:42;0.60;;;0.60;;
12687;SDS011;6408;59.388;17.798;2023-05-17T08:24:10;1.60;;;0.90;;
12687;SDS011;6408;59.388;17.798;2023-05-17T08:26:38;0.77;;;0.77;;
12687;SDS011;6408;59.388;17.798;2023-05-17T08:29:06;1.00;;;0.90;;
12687;SDS011;6408;59.388;17.798;2023-05-17T08:31:34;0.93;;;0.80;;
12687;SDS011;6408;59.388;17.798;2023-05-17T08:34:02;0.60;;;0.60;;
12687;SDS011;6408;59.388;17.798;2023-05-17T08:36:31;0.60;;;0.60;;
12687;SDS011;6408;59.388;17.798;2023-05-17T08:38:59;0.57;;;0.57;;
12687;SDS011;6408;59.388;17.798;2023-05-17T08:41:28;0.50;;;0.50;;
12687;SDS011;6408;59.388;17.798;2023-05-17T08:43:56;0.60;;;0.60;;
12687;SDS011;6408;59.388;17.798;2023-05-17T08:46:25;0.63;;;0.60;;
12687;SDS011;6408;59.388;17.798;2023-05-17T08:48:55;0.60;;;0.60;;
12687;SDS011;6408;59.388;17.798;2023-05-17T08:51:26;0.40;;;0.40;;
12687;SDS011;6408;59.388;17.798;2023-05-17T08:53:56;0.50;;;0.50;;
12687;SDS011;6408;59.388;17.798;2023-05-17T08:56:29;0.30;;;0.20;;
12687;SDS011;6408;59.388;17.798;2023-05-17T08:58:59;0.30;;;0.30;;
12687;SDS011;6408;59.388;17.798;2023-05-17T09:01:28;0.30;;;0.30;;
12687;SDS011;6408;59.388;17.798;2023-05-17T09:03:56;0.20;;;0.20;;
12687;SDS011;6408;59.388;17.798;2023-05-17T09:06:25;0.37;;;0.20;;
12687;SDS011;6408;59.388;17.798;2023-05-17T09:08:53;0.23;;;0.20;;
12687;SDS011;6408;59.388;17.798;2023-05-17T09:11:26;0.00;;;0.00;;
12687;SDS011;6408;59.388;17.798;2023-05-17T09:13:56;0.10;;;0.10;;
12687;SDS011;6408;59.388;17.798;2023-05-17T09:16:26;0.20;;;0.20;;
12687;SDS011;6408;59.388;17.798;2023-05-17T09:18:55;0.10;;;0.10;;
12687;SDS011;6408;59.388;17.798;2023-05-17T09:21:24;0.10;;;0.10;;
12687;SDS011;6408;59.388;17.798;2023-05-17T09:23:52;0.10;;;0.10;;
12687;SDS011;6408;59.388;17.798;2023-05-17T09:26:25;0.20;;;0.13;;
12687;SDS011;6408;59.388;17.798;2023-05-17T09:29:05;1.23;;;0.10;;
12687;SDS011;6408;59.388;17.798;2023-05-17T09:31:34;0.10;;;0.10;;
12687;SDS011;6408;59.388;17.798;2023-05-17T09:34:01;0.10;;;0.10;;
12687;SDS011;6408;59.388;17.798;2023-05-17T09:36:31;1.33;;;0.10;;
12687;SDS011;6408;59.388;17.798;2023-05-17T09:38:59;0.00;;;0.00;;
12687;SDS011;6408;59.388;17.798;2023-05-17T09:41:32;0.20;;;0.20;;
12687;SDS011;6408;59.388;17.798;2023-05-17T09:44:06;0.20;;;0.20;;
12687;SDS011;6408;59.388;17.798;2023-05-17T09:46:35;0.10;;;0.10;;
12687;SDS011;6408;59.388;17.798;2023-05-17T09:49:04;0.07;;;0.07;;
12687;SDS011;6408;59.388;17.798;2023-05-17T09:51:33;0.30;;;0.30;;
12687;SDS011;6408;59.388;17.798;2023-05-17T09:54:02;0.47;;;0.30;;
12687;SDS011;6408;59.388;17.798;2023-05-17T09:56:33;0.20;;;0.20;;
12687;SDS011;6408;59.388;17.798;2023-05-17T09:59:01;0.20;;;0.20;;
12687;SDS011;6408;59.388;17.798;2023-05-17T10:01:30;0.57;;;0.20;;
12687;SDS011;6408;59.388;17.798;2023-05-17T10:03:59;0.70;;;0.30;;
12687;SDS011;6408;59.388;17.798;2023-05-17T10:06:28;0.63;;;0.17;;
12687;SDS011;6408;59.388;17.798;2023-05-17T10:08:58;0.23;;;0.23;;
12687;SDS011;6408;59.388;17.798;2023-05-17T10:11:28;1.10;;;0.30;;
12687;SDS011;6408;59.388;17.798;2023-05-17T10:16:46;0.30;;;0.30;;
12687;SDS011;6408;59.388;17.798;2023-05-17T10:19:15;0.30;;;0.30;;
12687;SDS011;6408;59.388;17.798;2023-05-17T10:21:46;0.20;;;0.20;;
12687;SDS011;6408;59.388;17.798;2023-05-17T10:24:14;2.13;;;0.57;;
12687;SDS011;6408;59.388;17.798;2023-05-17T10:26:42;0.50;;;0.50;;
12687;SDS011;6408;59.388;17.798;2023-05-17T10:29:10;0.67;;;0.40;;
12687;SDS011;6408;59.388;17.798;2023-05-17T10:31:39;0.33;;;0.30;;
12687;SDS011;6408;59.388;17.798;2023-05-17T10:34:09;1.20;;;0.20;;
12687;SDS011;6408;59.388;17.798;2023-05-17T10:36:38;0.30;;;0.30;;
12687;SDS011;6408;59.388;17.798;2023-05-17T10:39:08;2.33;;;0.30;;
12687;SDS011;6408;59.388;17.798;2023-05-17T10:41:38;0.50;;;0.40;;
12687;SDS011;6408;59.388;17.798;2023-05-17T10:44:08;0.63;;;0.40;;
12687;SDS011;6408;59.388;17.798;2023-05-17T10:46:42;0.20;;;0.20;;
12687;SDS011;6408;59.388;17.798;2023-05-17T10:49:17;0.20;;;0.20;;
12687;SDS011;6408;59.388;17.798;2023-05-17T10:51:45;1.73;;;0.33;;
12687;SDS011;6408;59.388;17.798;2023-05-17T10:54:13;0.30;;;0.30;;
12687;SDS011;6408;59.388;17.798;2023-05-17T10:56:46;0.40;;;0.40;;
12687;SDS011;6408;59.388;17.798;2023-05-17T10:59:19;0.53;;;0.20;;
12687;SDS011;6408;59.388;17.798;2023-05-17T11:01:50;0.30;;;0.30;;
12687;SDS011;6408;59.388;17.798;2023-05-17T11:04:20;0.20;;;0.20;;
12687;SDS011;6408;59.388;17.798;2023-05-17T11:09:49;0.30;;;0.30;;
12687;SDS011;6408;59.388;17.798;2023-05-17T11:12:29;0.40;;;0.30;;
12687;SDS011;6408;59.388;17.798;2023-05-17T11:15:00;3.70;;;0.60;;
12687;SDS011;6408;59.388;17.798;2023-05-17T11:17:47;1.70;;;0.40;;
12687;SDS011;6408;59.388;17.798;2023-05-17T11:20:33;0.20;;;0.20;;
12687;SDS011;6408;59.388;17.798;2023-05-17T11:23:01;0.37;;;0.37;;
12687;SDS011;6408;59.388;17.798;2023-05-17T11:25:30;0.37;;;0.37;;
12687;SDS011;6408;59.388;17.798;2023-05-17T11:27:59;0.60;;;0.60;;
12687;SDS011;6408;59.388;17.798;2023-05-17T11:30:32;0.67;;;0.57;;
12687;SDS011;6408;59.388;17.798;2023-05-17T11:33:02;1.67;;;0.47;;
12687;SDS011;6408;59.388;17.798;2023-05-17T11:35:32;0.60;;;0.60;;
12687;SDS011;6408;59.388;17.798;2023-05-17T11:38:13;0.50;;;0.50;;
12687;SDS011;6408;59.388;17.798;2023-05-17T11:40:42;0.50;;;0.50;;
12687;SDS011;6408;59.388;17.798;2023-05-17T11:43:11;0.70;;;0.70;;
12687;SDS011;6408;59.388;17.798;2023-05-17T11:45:41;0.67;;;0.67;;
12687;SDS011;6408;59.388;17.798;2023-05-17T11:48:12;0.77;;;0.60;;
12687;SDS011;6408;59.388;17.798;2023-05-17T11:50:40;0.47;;;0.47;;
12687;SDS011;6408;59.388;17.798;2023-05-17T11:53:08;0.30;;;0.30;;
12687;SDS011;6408;59.388;17.798;2023-05-17T11:55:39;0.60;;;0.60;;
12687;SDS011;6408;59.388;17.798;2023-05-17T11:58:08;0.60;;;0.60;;
12687;SDS011;6408;59.388;17.798;2023-05-17T12:00:38;0.47;;;0.47;;
12687;SDS011;6408;59.388;17.798;2023-05-17T12:03:18;0.83;;;0.40;;
12687;SDS011;6408;59.388;17.798;2023-05-17T12:05:47;0.40;;;0.40;;
12687;SDS011;6408;59.388;17.798;2023-05-17T12:08:16;2.93;;;0.67;;
12687;SDS011;6408;59.388;17.798;2023-05-17T12:10:47;0.53;;;0.50;;
12687;SDS011;6408;59.388;17.798;2023-05-17T12:13:15;0.77;;;0.77;;
12687;SDS011;6408;59.388;17.798;2023-05-17T12:15:44;0.50;;;0.50;;
12687;SDS011;6408;59.388;17.798;2023-05-17T12:18:18;1.00;;;0.60;;
12687;SDS011;6408;59.388;17.798;2023-05-17T12:20:53;0.70;;;0.70;;
12687;SDS011;6408;59.388;17.798;2023-05-17T12:23:27;1.50;;;0.53;;
12687;SDS011;6408;59.388;17.798;2023-05-17T12:26:06;0.60;;;0.60;;
12687;SDS011;6408;59.388;17.798;2023-05-17T12:28:35;0.53;;;0.53;;
12687;SDS011;6408;59.388;17.798;2023-05-17T12:31:04;0.50;;;0.50;;
12687;SDS011;6408;59.388;17.798;2023-05-17T12:33:37;0.40;;;0.40;;
12687;SDS011;6408;59.388;17.798;2023-05-17T12:36:06;0.50;;;0.50;;
12687;SDS011;6408;59.388;17.798;2023-05-17T12:38:35;0.87;;;0.60;;
12687;SDS011;6408;59.388;17.798;2023-05-17T12:41:07;0.70;;;0.50;;
12687;SDS011;6408;59.388;17.798;2023-05-17T12:43:37;0.50;;;0.50;;
12687;SDS011;6408;59.388;17.798;2023-05-17T12:46:05;0.40;;;0.40;;
12687;SDS011;6408;59.388;17.798;2023-05-17T12:48:36;0.60;;;0.60;;
12687;SDS011;6408;59.388;17.798;2023-05-17T12:51:05;1.07;;;0.63;;
12687;SDS011;6408;59.388;17.798;2023-05-17T12:53:33;0.30;;;0.30;;
12687;SDS011;6408;59.388;17.798;2023-05-17T12:56:02;1.40;;;0.30;;
12687;SDS011;6408;59.388;17.798;2023-05-17T12:58:29;0.30;;;0.30;;
12687;SDS011;6408;59.388;17.798;2023-05-17T13:00:57;0.30;;;0.30;;
12687;SDS011;6408;59.388;17.798;2023-05-17T13:03:26;0.53;;;0.30;;
12687;SDS011;6408;59.388;17.798;2023-05-17T13:08:40;0.97;;;0.37;;
12687;SDS011;6408;59.388;17.798;2023-05-17T13:11:08;0.97;;;0.33;;
12687;SDS011;6408;59.388;17.798;2023-05-17T13:13:37;1.67;;;0.40;;
12687;SDS011;6408;59.388;17.798;2023-05-17T13:16:04;0.43;;;0.43;;
12687;SDS011;6408;59.388;17.798;2023-05-17T13:21:21;4.30;;;1.00;;
12687;SDS011;6408;59.388;17.798;2023-05-17T13:23:50;1.03;;;0.93;;
12687;SDS011;6408;59.388;17.798;2023-05-17T13:26:18;0.90;;;0.70;;
12687;SDS011;6408;59.388;17.798;2023-05-17T13:28:47;0.50;;;0.50;;
12687;SDS011;6408;59.388;17.798;2023-05-17T13:31:15;0.30;;;0.30;;
12687;SDS011;6408;59.388;17.798;2023-05-17T13:33:42;0.10;;;0.10;;
12687;SDS011;6408;59.388;17.798;2023-05-17T13:36:13;1.20;;;0.40;;
12687;SDS011;6408;59.388;17.798;2023-05-17T13:38:45;3.57;;;0.60;;
12687;SDS011;6408;59.388;17.798;2023-05-17T13:41:13;0.30;;;0.30;;
12687;SDS011;6408;59.388;17.798;2023-05-17T13:43:40;0.30;;;0.30;;
12687;SDS011;6408;59.388;17.798;2023-05-17T13:46:08;0.63;;;0.40;;
12687;SDS011;6408;59.388;17.798;2023-05-17T13:48:35;0.20;;;0.20;;
12687;SDS011;6408;59.388;17.798;2023-05-17T13:51:02;0.30;;;0.23;;
12687;SDS011;6408;59.388;17.798;2023-05-17T13:53:30;0.20;;;0.20;;
12687;SDS011;6408;59.388;17.798;2023-05-17T13:56:00;0.40;;;0.37;;
12687;SDS011;6408;59.388;17.798;2023-05-17T13:58:27;0.83;;;0.30;;
12687;SDS011;6408;59.388;17.798;2023-05-17T14:00:54;0.67;;;0.20;;
12687;SDS011;6408;59.388;17.798;2023-05-17T14:03:22;0.30;;;0.20;;
12687;SDS011;6408;59.388;17.798;2023-05-17T14:05:50;0.80;;;0.27;;
12687;SDS011;6408;59.388;17.798;2023-05-17T14:08:17;0.40;;;0.40;;
12687;SDS011;6408;59.388;17.798;2023-05-17T14:10:45;0.50;;;0.50;;
12687;SDS011;6408;59.388;17.798;2023-05-17T14:13:14;0.30;;;0.30;;
12687;SDS011;6408;59.388;17.798;2023-05-17T14:15:41;2.30;;;0.30;;
12687;SDS011;6408;59.388;17.798;2023-05-17T14:18:09;0.97;;;0.50;;
12687;SDS011;6408;59.388;17.798;2023-05-17T14:20:36;0.17;;;0.17;;
12687;SDS011;6408;59.388;17.798;2023-05-17T14:23:03;0.87;;;0.30;;
12687;SDS011;6408;59.388;17.798;2023-05-17T14:25:31;0.30;;;0.30;;
12687;SDS011;6408;59.388;17.798;2023-05-17T14:27:59;0.20;;;0.20;;
12687;SDS011;6408;59.388;17.798;2023-05-17T14:30:28;1.20;;;0.40;;
12687;SDS011;6408;59.388;17.798;2023-05-17T14:32:55;1.03;;;0.40;;
12687;SDS011;6408;59.388;17.798;2023-05-17T14:35:23;1.43;;;0.40;;
12687;SDS011;6408;59.388;17.798;2023-05-17T14:37:51;0.30;;;0.30;;
12687;SDS011;6408;59.388;17.798;2023-05-17T14:40:18;0.30;;;0.30;;
12687;SDS011;6408;59.388;17.798;2023-05-17T14:42:46;0.70;;;0.40;;
12687;SDS011;6408;59.388;17.798;2023-05-17T14:45:14;1.00;;;0.40;;
12687;SDS011;6408;59.388;17.798;2023-05-17T14:47:44;0.27;;;0.27;;
12687;SDS011;6408;59.388;17.798;2023-05-17T14:50:11;0.50;;;0.50;;
12687;SDS011;6408;59.388;17.798;2023-05-17T14:52:38;0.40;;;0.40;;
12687;SDS011;6408;59.388;17.798;2023-05-17T14:55:06;0.77;;;0.40;;
12687;SDS011;6408;59.388;17.798;2023-05-17T14:57:34;0.43;;;0.43;;
12687;SDS011;6408;59.388;17.798;2023-05-17T15:00:04;0.37;;;0.37;;
12687;SDS011;6408;59.388;17.798;2023-05-17T15:02:35;0.37;;;0.37;;
12687;SDS011;6408;59.388;17.798;2023-05-17T15:05:05;0.50;;;0.50;;
12687;SDS011;6408;59.388;17.798;2023-05-17T15:07:33;0.57;;;0.50;;
12687;SDS011;6408;59.388;17.798;2023-05-17T15:10:01;0.40;;;0.40;;